Time;durP1;ratioP1;P1;durP2;ratioP2;P2;SDS_P1;SDS_P2;PMS_P1;PMS_P2;Temp;Humidity;BMP_temperature;BMP_pressure;BME280_temperature;BME280_humidity;BME280_pressure;Samples;Min_cycle;Max_cycle;Signal;HPM_P1;HPM_P2
2022/08/10 00:01:33;;;;;;;4.97;3.30;;;;;;;20.87;55.78;102584.22;5047525;28;20037;-56
2022/08/10 00:03:58;;;;;;;6.43;3.75;;;;;;;20.80;56.24;102578.88;5049124;28;20024;-56
2022/08/10 00:06:24;;;;;;;5.45;3.30;;;;;;;20.79;56.12;102581.50;5046453;28;20035;-55
2022/08/10 00:08:49;;;;;;;7.15;3.70;;;;;;;20.76;56.20;102581.47;5049304;28;20032;-55
2022/08/10 00:11:14;;;;;;;5.75;3.63;;;;;;;20.73;56.04;102581.47;5051236;28;20443;-55
2022/08/10 00:13:40;;;;;;;5.65;3.20;;;;;;;20.69;56.07;102571.69;5049620;28;20055;-56
2022/08/10 00:16:05;;;;;;;6.15;3.72;;;;;;;20.70;55.96;102571.72;5047127;28;20079;-58
2022/08/10 00:18:30;;;;;;;5.15;3.22;;;;;;;20.64;56.32;102569.84;5046124;28;20021;-58
2022/08/10 00:20:56;;;;;;;5.13;3.35;;;;;;;20.59;56.53;102576.84;5047883;28;20025;-58
2022/08/10 00:23:21;;;;;;;5.30;3.35;;;;;;;20.57;56.58;102573.31;5047115;28;20079;-57
2022/08/10 00:25:46;;;;;;;6.20;3.03;;;;;;;20.54;56.61;102567.09;5049641;28;20013;-58
2022/08/10 00:28:12;;;;;;;9.02;4.70;;;;;;;20.56;56.18;102575.97;5041391;28;20071;-58
2022/08/10 00:30:37;;;;;;;6.30;3.55;;;;;;;20.53;56.91;102567.97;5044078;28;20063;-58
2022/08/10 00:33:02;;;;;;;5.85;3.35;;;;;;;20.46;57.03;102572.31;5049779;28;20040;-58
2022/08/10 00:35:28;;;;;;;5.63;3.30;;;;;;;20.44;57.23;102567.00;5024742;28;20037;-57
2022/08/10 00:37:53;;;;;;;6.32;3.08;;;;;;;20.39;57.42;102562.53;5045591;28;20079;-57
2022/08/10 00:40:19;;;;;;;7.68;3.78;;;;;;;20.39;57.09;102567.84;5047726;28;20045;-58
2022/08/10 00:42:44;;;;;;;7.18;4.00;;;;;;;20.33;56.81;102568.66;5045384;28;20021;-58
2022/08/10 00:45:10;;;;;;;6.57;3.65;;;;;;;20.30;57.04;102561.56;5046770;28;20009;-57
2022/08/10 00:47:35;;;;;;;5.40;3.42;;;;;;;20.25;57.40;102560.63;5048896;28;20029;-58
2022/08/10 00:50:02;;;;;;;5.07;3.47;;;;;;;20.23;57.66;102562.38;5047145;28;20043;-58
2022/08/10 00:52:29;;;;;;;5.72;3.38;;;;;;;20.18;57.82;102563.22;5048569;28;20537;-58
2022/08/10 00:54:56;;;;;;;6.82;4.28;;;;;;;20.18;57.45;102565.84;5046942;28;20113;-58
2022/08/10 00:57:22;;;;;;;8.50;4.50;;;;;;;20.13;58.01;102555.19;5049244;28;20043;-57
2022/08/10 00:59:47;;;;;;;5.55;3.50;;;;;;;20.14;57.57;102563.16;5046933;28;20025;-57
2022/08/10 01:02:13;;;;;;;5.93;3.38;;;;;;;20.08;58.27;102557.78;5041718;28;20526;-57
2022/08/10 01:04:38;;;;;;;6.50;3.70;;;;;;;20.04;57.93;102565.69;5043624;28;20025;-58
2022/08/10 01:07:20;;;;;;;6.80;3.60;;;;;;;20.01;58.62;102557.72;5046495;28;20055;-58
2022/08/10 01:10:17;;;;;;;5.55;3.65;;;;;;;19.98;58.01;102554.16;5039404;28;20071;-58
2022/08/10 01:12:53;;;;;;;7.28;4.38;;;;;;;19.95;57.81;102558.53;5047049;28;20063;-58
2022/08/10 01:15:28;;;;;;;6.57;3.65;;;;;;;19.91;58.55;102562.88;5046364;28;20033;-58
2022/08/10 01:18:08;;;;;;;7.57;3.60;;;;;;;19.89;58.51;102561.09;5039384;28;20036;-58
2022/08/10 01:20:40;;;;;;;5.68;3.40;;;;;;;19.86;58.63;102554.00;5044122;28;20454;-58
2022/08/10 01:23:18;;;;;;;6.13;4.03;;;;;;;19.85;58.40;102540.78;5049659;28;20163;-58
2022/08/10 01:25:48;;;;;;;5.50;3.40;;;;;;;19.77;58.86;102540.66;5047858;28;20037;-58
2022/08/10 01:28:32;;;;;;;6.25;3.85;;;;;;;19.72;58.55;102548.50;5040984;28;20045;-58
2022/08/10 01:31:00;;;;;;;6.05;3.85;;;;;;;19.70;58.84;102549.38;5041326;28;20108;-58
2022/08/10 01:33:31;;;;;;;5.95;3.70;;;;;;;19.66;58.94;102555.50;5048405;28;20040;-58
2022/08/10 01:36:24;;;;;;;7.50;4.03;;;;;;;19.63;58.47;102551.91;5048518;28;20047;-58
2022/08/10 01:38:51;;;;;;;6.25;3.90;;;;;;;19.57;59.17;102546.56;5036603;28;20033;-58
2022/08/10 01:41:30;;;;;;;5.93;3.75;;;;;;;19.55;58.96;102550.94;5048927;28;20040;-58
2022/08/10 01:44:05;;;;;;;8.77;4.25;;;;;;;19.50;59.26;102557.03;5045883;28;20029;-57
2022/08/10 01:46:33;;;;;;;7.22;4.03;;;;;;;19.46;59.09;102556.09;5045711;28;20108;-57
2022/08/10 01:49:01;;;;;;;7.10;3.90;;;;;;;19.39;59.64;102544.56;5045628;28;20016;-57
2022/08/10 01:51:47;;;;;;;7.65;4.30;;;;;;;19.37;59.67;102545.41;5047885;28;20033;-57
2022/08/10 01:54:14;;;;;;;7.72;4.35;;;;;;;19.36;59.60;102548.91;5032827;28;20041;-57
2022/08/10 01:56:43;;;;;;;6.28;4.05;;;;;;;19.32;59.69;102547.97;5049258;28;20776;-56
2022/08/10 01:59:12;;;;;;;8.70;4.80;;;;;;;19.27;60.13;102545.25;5048099;28;20036;-58
2022/08/10 02:01:44;;;;;;;7.20;4.40;;;;;;;19.26;60.07;102556.69;5046714;28;20103;-57
2022/08/10 02:04:13;;;;;;;6.97;4.38;;;;;;;19.21;60.32;102549.56;5024194;28;20029;-58
2022/08/10 02:06:46;;;;;;;7.45;4.57;;;;;;;19.18;59.93;102550.41;5048682;28;20024;-58
2022/08/10 02:09:16;;;;;;;7.85;4.63;;;;;;;19.13;60.46;102553.84;5048049;28;20091;-57
2022/08/10 02:11:42;;;;;;;7.53;4.63;;;;;;;19.09;60.78;102542.34;5046418;28;20024;-57
2022/08/10 02:14:12;;;;;;;8.98;4.30;;;;;;;19.01;61.25;102554.53;5046202;28;20040;-57
2022/08/10 02:16:41;;;;;;;6.70;4.53;;;;;;;19.00;61.34;102552.75;5045497;28;20029;-57
2022/08/10 02:19:08;;;;;;;7.20;4.40;;;;;;;18.96;61.58;102548.28;5048482;28;20028;-57
2022/08/10 02:21:35;;;;;;;10.20;4.72;;;;;;;18.99;60.93;102537.75;5045756;28;20020;-57
2022/08/10 02:24:01;;;;;;;7.32;4.03;;;;;;;18.98;60.95;102541.28;5037788;28;20033;-57
2022/08/10 02:26:28;;;;;;;6.43;4.25;;;;;;;18.93;60.80;102534.16;5047533;28;20070;-57
2022/08/10 02:28:54;;;;;;;8.93;4.40;;;;;;;18.90;61.23;102542.06;5045632;28;20037;-57
2022/08/10 02:31:22;;;;;;;7.93;4.80;;;;;;;18.88;61.32;102537.59;5045832;28;20048;-57
2022/08/10 02:33:50;;;;;;;8.30;4.65;;;;;;;18.86;61.57;102548.13;5048289;28;20036;-57
2022/08/10 02:36:18;;;;;;;7.93;5.28;;;;;;;18.83;61.46;102542.78;5048019;28;20056;-58
2022/08/10 02:38:49;;;;;;;8.40;5.10;;;;;;;18.79;61.84;102538.31;5037795;28;20025;-58
2022/08/10 02:41:25;;;;;;;7.85;5.13;;;;;;;18.79;61.53;102542.72;5045376;28;20522;-58
2022/08/10 02:43:56;;;;;;;8.35;4.93;;;;;;;18.75;61.87;102533.81;5043263;28;20404;-58
2022/08/10 02:46:35;;;;;;;8.15;4.68;;;;;;;18.71;61.28;102540.81;5044013;28;20040;-58
2022/08/10 02:49:03;;;;;;;7.35;4.60;;;;;;;18.67;61.71;102548.66;5046663;28;20028;-58
2022/08/10 02:52:01;;;;;;;7.43;4.78;;;;;;;18.68;60.97;102539.88;5047425;28;20087;-58
2022/08/10 02:54:34;;;;;;;8.82;5.13;;;;;;;18.64;61.37;102528.38;5030281;28;20177;-58
2022/08/10 02:57:05;;;;;;;7.63;4.72;;;;;;;18.57;61.07;102530.00;5048259;28;20530;-58
2022/08/10 02:59:38;;;;;;;8.02;5.00;;;;;;;18.52;61.97;102526.38;5049096;28;20040;-58
2022/08/10 03:02:07;;;;;;;8.07;5.20;;;;;;;18.49;61.65;102523.69;5043117;28;20033;-58
2022/08/10 03:04:40;;;;;;;9.20;5.10;;;;;;;18.46;62.45;102520.13;5048273;28;20017;-58
2022/08/10 03:07:10;;;;;;;8.95;5.18;;;;;;;18.41;62.14;102512.13;5047513;28;20063;-58
2022/08/10 03:09:38;;;;;;;8.63;5.10;;;;;;;18.39;62.12;102514.75;5048579;28;20131;-58
2022/08/10 03:12:07;;;;;;;8.13;5.00;;;;;;;18.39;62.06;102512.13;5044670;28;20033;-58
2022/08/10 03:14:36;;;;;;;8.13;5.15;;;;;;;18.36;62.74;102511.16;5046633;28;20150;-59
2022/08/10 03:17:02;;;;;;;8.43;5.40;;;;;;;18.33;62.99;102511.09;5050018;28;20488;-58
2022/08/10 03:19:30;;;;;;;10.68;5.80;;;;;;;18.32;62.94;102510.22;5045294;28;20044;-58
2022/08/10 03:21:57;;;;;;;9.00;5.70;;;;;;;18.26;63.12;102510.09;5045973;28;20040;-58
2022/08/10 03:24:24;;;;;;;10.20;5.72;;;;;;;18.24;63.23;102507.41;5050140;28;20412;-58
2022/08/10 03:26:52;;;;;;;9.40;5.72;;;;;;;18.22;62.81;102508.28;5048033;28;20075;-58
2022/08/10 03:29:19;;;;;;;10.52;6.00;;;;;;;18.20;63.16;102513.50;5046681;28;20033;-58
2022/08/10 03:31:46;;;;;;;9.52;6.30;;;;;;;18.14;63.32;102516.03;5050148;28;20028;-58
2022/08/10 03:34:13;;;;;;;10.63;6.43;;;;;;;18.14;63.11;102512.50;5051492;28;20047;-58
2022/08/10 03:36:39;;;;;;;12.90;6.40;;;;;;;18.08;63.67;102511.53;5052076;28;20029;-57
2022/08/10 03:39:04;;;;;;;10.63;6.45;;;;;;;18.08;64.24;102508.00;5052105;28;20035;-58
2022/08/10 03:41:40;;;;;;;11.57;6.57;;;;;;;18.06;63.31;102517.63;5044855;28;20060;-59
2022/08/10 03:44:07;;;;;;;11.88;6.80;;;;;;;18.03;64.32;102504.38;5046779;28;20041;-58
2022/08/10 03:46:36;;;;;;;9.80;6.40;;;;;;;18.00;64.26;102514.88;5049708;28;20029;-59
2022/08/10 03:49:04;;;;;;;13.63;7.22;;;;;;;17.95;64.25;102516.56;5046287;28;20023;-57
2022/08/10 03:51:30;;;;;;;11.15;6.63;;;;;;;17.95;64.46;102512.16;5045010;28;20037;-59
2022/08/10 03:53:57;;;;;;;11.13;7.13;;;;;;;17.89;64.27;102509.38;5051285;28;20055;-59
2022/08/10 03:56:23;;;;;;;10.27;6.47;;;;;;;17.89;64.59;102512.88;5050924;28;20618;-58
2022/08/10 03:58:49;;;;;;;11.70;7.03;;;;;;;17.89;64.37;102520.78;5048364;28;20025;-59
2022/08/10 04:01:15;;;;;;;12.63;6.70;;;;;;;17.85;64.89;102526.84;5040778;28;20044;-59
2022/08/10 04:03:41;;;;;;;13.32;7.22;;;;;;;17.86;64.40;102517.22;5042535;28;20033;-58
2022/08/10 04:06:08;;;;;;;13.10;7.18;;;;;;;17.83;64.15;102518.03;5044056;28;20029;-57
2022/08/10 04:08:33;;;;;;;10.50;6.90;;;;;;;17.80;64.37;102517.97;5049460;28;20028;-58
2022/08/10 04:10:58;;;;;;;12.40;7.40;;;;;;;17.79;64.28;102513.56;5051549;28;20042;-56
2022/08/10 04:13:24;;;;;;;12.73;7.68;;;;;;;17.77;64.45;102514.38;5049187;28;20453;-57
2022/08/10 04:15:49;;;;;;;12.57;7.57;;;;;;;17.73;64.31;102511.69;5044229;28;20033;-57
2022/08/10 04:18:14;;;;;;;10.13;6.80;;;;;;;17.71;64.80;102512.50;5047610;28;20046;-58
2022/08/10 04:20:47;;;;;;;13.95;7.43;;;;;;;17.69;64.85;102514.22;5047335;28;20589;-58
2022/08/10 04:23:20;;;;;;;12.57;7.63;;;;;;;17.67;64.67;102526.47;5042414;28;20902;-58
2022/08/10 04:25:46;;;;;;;14.50;7.85;;;;;;;17.64;64.39;102522.06;5032401;28;20392;-58
2022/08/10 04:28:11;;;;;;;13.63;6.72;;;;;;;17.64;64.86;102524.69;5046178;28;20021;-57
2022/08/10 04:30:39;;;;;;;12.48;7.03;;;;;;;17.60;65.15;102520.19;5048763;28;20032;-57
2022/08/10 04:33:07;;;;;;;11.27;7.07;;;;;;;17.58;65.91;102523.66;5049953;28;20526;-58
2022/08/10 04:35:33;;;;;;;12.57;6.72;;;;;;;17.54;65.37;102531.50;5047750;28;20346;-57
2022/08/10 04:38:00;;;;;;;13.48;7.30;;;;;;;17.52;64.89;102522.69;5048202;28;20029;-57
2022/08/10 04:40:26;;;;;;;11.75;7.05;;;;;;;17.48;65.58;102526.09;5044964;28;20513;-58
2022/08/10 04:42:52;;;;;;;14.68;8.20;;;;;;;17.46;65.18;102522.53;5043259;28;20044;-57
2022/08/10 04:45:18;;;;;;;10.57;6.70;;;;;;;17.46;65.02;102522.53;5021487;28;20040;-58
2022/08/10 04:47:43;;;;;;;14.52;8.80;;;;;;;17.44;65.82;102521.59;5039355;28;20037;-58
2022/08/10 04:50:09;;;;;;;14.52;8.63;;;;;;;17.40;65.84;102532.06;5047713;28;20037;-58
2022/08/10 04:52:34;;;;;;;19.98;10.98;;;;;;;17.37;66.27;102522.34;5049242;28;20057;-58
2022/08/10 04:54:59;;;;;;;18.63;9.27;;;;;;;17.35;65.59;102516.13;5050377;28;20449;-57
2022/08/10 04:57:25;;;;;;;19.20;9.88;;;;;;;17.35;65.80;102521.38;5045241;28;20435;-58
2022/08/10 04:59:51;;;;;;;18.17;9.90;;;;;;;17.32;66.09;102516.06;5047891;28;20476;-58
2022/08/10 05:02:16;;;;;;;18.70;10.00;;;;;;;17.29;66.14;102513.34;5040131;28;20025;-58
2022/08/10 05:04:41;;;;;;;17.77;9.70;;;;;;;17.27;66.33;102513.31;5049537;28;20028;-58
2022/08/10 05:07:08;;;;;;;19.98;10.25;;;;;;;17.27;66.43;102515.06;5048155;28;20043;-58
2022/08/10 05:09:34;;;;;;;18.65;10.20;;;;;;;17.24;67.13;102515.88;5048617;28;20061;-58
2022/08/10 05:11:59;;;;;;;15.60;9.07;;;;;;;17.24;67.28;102520.28;5046020;28;20064;-58
2022/08/10 05:14:25;;;;;;;18.00;10.00;;;;;;;17.18;67.63;102511.38;5047760;28;20405;-58
2022/08/10 05:16:50;;;;;;;15.73;9.38;;;;;;;17.19;67.04;102521.06;5044112;28;20079;-58
2022/08/10 05:19:15;;;;;;;14.70;8.65;;;;;;;17.19;67.32;102518.44;5046595;28;20508;-57
2022/08/10 05:21:40;;;;;;;15.55;8.70;;;;;;;17.19;66.91;102513.16;5045120;28;20114;-58
2022/08/10 05:24:06;;;;;;;15.98;8.30;;;;;;;17.21;67.50;102515.81;5029582;28;20495;-58
2022/08/10 05:26:31;;;;;;;13.82;8.27;;;;;;;17.17;68.04;102509.56;5044122;28;20051;-58
2022/08/10 05:28:57;;;;;;;14.20;8.35;;;;;;;17.18;68.03;102521.03;5050184;28;20029;-58
2022/08/10 05:31:23;;;;;;;13.98;8.82;;;;;;;17.19;68.51;102523.69;5049411;28;20070;-58
2022/08/10 05:33:48;;;;;;;13.38;8.13;;;;;;;17.19;68.49;102528.06;5037540;28;20088;-58
2022/08/10 05:36:14;;;;;;;15.38;7.93;;;;;;;17.20;68.75;102530.72;5046464;28;20040;-58
2022/08/10 05:38:40;;;;;;;15.45;7.93;;;;;;;17.24;68.43;102536.09;5049941;28;20063;-58
2022/08/10 05:41:05;;;;;;;17.40;8.27;;;;;;;17.23;69.36;102531.66;5048733;28;20144;-58
2022/08/10 05:43:31;;;;;;;14.77;8.45;;;;;;;17.24;69.04;102529.06;5047340;28;20593;-57
2022/08/10 05:45:57;;;;;;;16.40;8.48;;;;;;;17.26;69.44;102529.09;5046480;28;20044;-57
2022/08/10 05:48:22;;;;;;;15.25;8.98;;;;;;;17.26;69.59;102527.34;5048774;28;20021;-57
2022/08/10 05:50:48;;;;;;;18.52;9.00;;;;;;;17.27;70.27;102528.25;5045116;28;20025;-57
2022/08/10 05:53:13;;;;;;;15.60;9.32;;;;;;;17.28;70.46;102527.38;5050048;28;20079;-57
2022/08/10 05:55:39;;;;;;;15.43;8.70;;;;;;;17.29;70.50;102529.16;5049016;28;20419;-58
2022/08/10 05:58:04;;;;;;;17.73;9.80;;;;;;;17.29;71.07;102530.06;5035135;28;20037;-57
2022/08/10 06:00:32;;;;;;;18.00;9.60;;;;;;;17.32;70.94;102530.13;5045337;28;20024;-58
2022/08/10 06:03:03;;;;;;;18.17;9.60;;;;;;;17.32;71.14;102534.50;5043949;28;20033;-57
2022/08/10 06:05:31;;;;;;;15.82;9.32;;;;;;;17.35;70.68;102534.56;5029502;28;20025;-57
2022/08/10 06:08:04;;;;;;;15.40;9.38;;;;;;;17.37;70.79;102524.97;5044319;28;20060;-57
2022/08/10 06:10:32;;;;;;;16.50;10.40;;;;;;;17.40;71.58;102527.66;5042231;28;20037;-58
2022/08/10 06:15:45;;;;;;;18.42;10.48;;;;;;;17.42;71.71;102531.22;5044524;28;20032;-57
2022/08/10 06:18:16;;;;;;;20.63;11.32;;;;;;;17.46;71.75;102535.69;5026808;28;20082;-58
2022/08/10 06:20:42;;;;;;;20.88;11.63;;;;;;;17.48;71.76;102539.28;5027157;28;20031;-58
2022/08/10 06:23:10;;;;;;;22.13;11.85;;;;;;;17.50;72.47;102534.03;5043352;28;20029;-58
2022/08/10 06:25:35;;;;;;;19.60;11.57;;;;;;;17.55;71.69;102532.38;5046572;28;20029;-58
2022/08/10 06:28:01;;;;;;;19.38;11.75;;;;;;;17.59;72.02;102543.88;5043141;28;20044;-58
2022/08/10 06:30:28;;;;;;;22.85;12.98;;;;;;;17.62;72.43;102534.28;5035218;28;20037;-58
2022/08/10 06:32:56;;;;;;;23.35;13.27;;;;;;;17.67;71.99;102535.28;5044585;28;20808;-58
2022/08/10 06:35:26;;;;;;;23.25;14.18;;;;;;;17.72;71.39;102540.66;5043171;28;20078;-58
2022/08/10 06:37:54;;;;;;;23.90;14.20;;;;;;;17.77;71.08;102533.75;5046069;28;20078;-58
2022/08/10 06:40:20;;;;;;;24.80;14.68;;;;;;;17.81;71.46;102530.28;5046531;28;20048;-58
2022/08/10 06:42:47;;;;;;;27.85;14.32;;;;;;;17.87;70.38;102527.78;5041212;28;20548;-58
2022/08/10 06:45:20;;;;;;;24.77;14.27;;;;;;;17.93;70.69;102527.06;5039048;28;20164;-58
2022/08/10 06:48:12;;;;;;;24.20;15.43;;;;;;;17.97;70.44;102525.38;5037786;28;20025;-57
2022/08/10 06:50:42;;;;;;;30.48;16.70;;;;;;;18.04;71.21;102524.63;5038874;28;20028;-58
2022/08/10 06:53:15;;;;;;;29.02;15.95;;;;;;;18.09;71.15;102528.25;5050189;28;20035;-58
2022/08/10 06:55:54;;;;;;;27.08;15.73;;;;;;;18.15;70.84;102530.13;5040186;28;20083;-58
2022/08/10 06:58:23;;;;;;;30.50;16.52;;;;;;;18.21;70.72;102536.41;5046217;28;20037;-58
2022/08/10 07:00:51;;;;;;;33.47;16.80;;;;;;;18.28;70.50;102536.50;5044019;28;20025;-58
2022/08/10 07:03:19;;;;;;;29.13;15.93;;;;;;;18.34;69.63;102537.53;5047454;28;20025;-58
2022/08/10 07:05:47;;;;;;;26.45;15.20;;;;;;;18.40;69.68;102534.09;5052281;28;20052;-58
2022/08/10 07:08:17;;;;;;;27.43;14.87;;;;;;;18.45;70.04;102535.09;5050162;28;20102;-57
2022/08/10 07:10:45;;;;;;;30.67;16.27;;;;;;;18.52;69.86;102536.94;5048975;28;20297;-58
2022/08/10 07:13:13;;;;;;;29.40;16.85;;;;;;;18.60;70.72;102532.69;5048409;28;20033;-58
2022/08/10 07:15:40;;;;;;;30.08;16.73;;;;;;;18.66;69.03;102533.69;5049190;28;20029;-57
2022/08/10 07:18:06;;;;;;;30.17;17.15;;;;;;;18.70;68.48;102541.69;5051152;28;20032;-58
2022/08/10 07:20:32;;;;;;;27.40;16.77;;;;;;;18.76;68.88;102535.63;5045932;28;20151;-59
2022/08/10 07:22:58;;;;;;;27.52;14.75;;;;;;;18.83;68.60;102540.13;5023546;28;20103;-58
2022/08/10 07:25:26;;;;;;;31.45;16.05;;;;;;;18.89;69.13;102545.53;5041624;28;20052;-58
2022/08/10 07:27:54;;;;;;;30.15;16.25;;;;;;;18.96;67.89;102543.00;5042099;28;20021;-56
2022/08/10 07:30:19;;;;;;;32.20;16.05;;;;;;;19.02;67.03;102548.41;5046511;28;20400;-57
2022/08/10 07:32:49;;;;;;;32.13;16.92;;;;;;;19.08;67.57;102561.69;5052881;28;20515;-57
2022/08/10 07:35:17;;;;;;;32.50;15.88;;;;;;;19.15;67.98;102552.09;5046928;28;20025;-58
2022/08/10 07:37:48;;;;;;;36.13;18.85;;;;;;;19.22;67.68;102554.88;5040390;28;20029;-58
2022/08/10 07:40:16;;;;;;;31.40;16.80;;;;;;;19.28;67.94;102549.66;5041260;28;20084;-58
2022/08/10 07:42:43;;;;;;;34.10;18.08;;;;;;;19.36;67.91;102546.25;5041214;28;20037;-58
2022/08/10 07:45:09;;;;;;;30.63;16.92;;;;;;;19.41;67.52;102545.47;5041718;28;20032;-59
2022/08/10 07:47:45;;;;;;;34.08;17.63;;;;;;;19.48;67.48;102553.47;5041832;28;20033;-59
2022/08/10 07:50:12;;;;;;;27.83;16.85;;;;;;;19.55;67.44;102553.59;5043532;28;20028;-58
2022/08/10 07:52:38;;;;;;;33.70;18.25;;;;;;;19.61;66.65;102550.13;5042949;28;20106;-58
2022/08/10 07:55:06;;;;;;;35.00;19.08;;;;;;;19.67;66.07;102544.94;5034201;28;20477;-58
2022/08/10 07:57:35;;;;;;;36.60;17.55;;;;;;;19.72;66.01;102547.63;5041626;28;20112;-59
2022/08/10 08:00:06;;;;;;;32.03;16.50;;;;;;;19.80;67.03;102551.31;5048557;28;20025;-59
2022/08/10 08:02:38;;;;;;;33.08;16.65;;;;;;;19.86;66.62;102551.38;5031929;28;20419;-59
2022/08/10 08:05:07;;;;;;;31.90;17.35;;;;;;;19.95;65.35;102542.66;5041982;28;20013;-59
2022/08/10 08:07:34;;;;;;;32.90;19.25;;;;;;;20.02;66.57;102549.78;5049001;28;20029;-59
2022/08/10 08:10:00;;;;;;;30.00;16.88;;;;;;;20.09;65.62;102542.81;5045688;28;20029;-59
2022/08/10 08:12:27;;;;;;;34.97;18.83;;;;;;;20.19;64.35;102550.00;5044837;28;20031;-59
2022/08/10 08:14:54;;;;;;;40.30;18.63;;;;;;;20.25;64.03;102543.88;5030426;28;20585;-59
2022/08/10 08:17:23;;;;;;;34.22;19.02;;;;;;;20.32;63.95;102546.59;5050368;28;20085;-59
2022/08/10 08:19:50;;;;;;;35.30;19.58;;;;;;;20.41;63.73;102543.16;5051227;28;20047;-59
2022/08/10 08:22:17;;;;;;;31.63;17.35;;;;;;;20.48;64.32;102550.28;5032325;28;20028;-59
2022/08/10 08:24:44;;;;;;;35.97;18.58;;;;;;;20.58;65.08;102553.91;5051930;28;20033;-59
2022/08/10 08:27:14;;;;;;;34.83;18.35;;;;;;;20.65;64.20;102544.25;5049506;28;20025;-59
2022/08/10 08:29:41;;;;;;;38.65;19.65;;;;;;;20.75;63.08;102543.47;5049822;28;20025;-58
2022/08/10 08:32:08;;;;;;;31.88;18.10;;;;;;;20.86;63.04;102543.59;5050884;28;20029;-59
2022/08/10 08:34:37;;;;;;;31.90;16.25;;;;;;;20.91;62.51;102541.84;5050905;28;20047;-59
2022/08/10 08:37:04;;;;;;;29.63;15.82;;;;;;;20.98;64.27;102537.50;5050238;28;20502;-59
2022/08/10 08:39:34;;;;;;;29.17;16.52;;;;;;;21.08;64.51;102541.97;5049760;28;20044;-58
2022/08/10 08:42:17;;;;;;;30.00;16.80;;;;;;;21.22;63.28;102547.38;5049983;28;20028;-59
2022/08/10 08:44:48;;;;;;;34.88;18.08;;;;;;;21.30;62.64;102540.34;5049052;28;20057;-59
2022/08/10 08:47:28;;;;;;;27.52;16.10;;;;;;;21.42;62.75;102542.22;5045729;28;20118;-60
2022/08/10 08:50:09;;;;;;;28.60;17.17;;;;;;;21.54;61.96;102539.63;5049433;28;20029;-60
2022/08/10 08:53:02;;;;;;;32.97;16.70;;;;;;;21.65;61.55;102537.06;5050343;28;20404;-60
2022/08/10 08:55:44;;;;;;;30.52;16.92;;;;;;;21.73;61.09;102545.03;5047372;28;20052;-60
2022/08/10 08:58:19;;;;;;;25.52;15.05;;;;;;;21.83;61.96;102535.34;5050175;28;20071;-62
2022/08/10 09:01:17;;;;;;;23.00;14.15;;;;;;;21.96;61.45;102537.16;5050362;28;20060;-59
2022/08/10 09:04:08;;;;;;;25.58;15.18;;;;;;;22.10;59.23;102545.19;5039072;28;20398;-59
2022/08/10 09:06:51;;;;;;;25.05;14.07;;;;;;;22.21;59.86;102539.88;5050634;28;20060;-60
2022/08/10 09:09:28;;;;;;;22.65;13.90;;;;;;;22.34;60.12;102527.53;5045564;28;20032;-60
2022/08/10 09:12:15;;;;;;;21.73;14.00;;;;;;;22.37;59.11;102522.22;5045928;28;20021;-60
2022/08/10 09:15:13;;;;;;;18.42;12.75;;;;;;;22.56;58.41;102526.69;5038268;28;20033;-60
2022/08/10 09:18:01;;;;;;;19.52;12.48;;;;;;;22.75;57.99;102519.59;5041041;28;20063;-59
2022/08/10 09:20:41;;;;;;;16.40;10.60;;;;;;;22.83;58.28;102521.38;5047057;28;20025;-59
2022/08/10 09:23:23;;;;;;;18.15;12.18;;;;;;;22.92;58.28;102519.56;5041029;28;20510;-59
2022/08/10 09:25:58;;;;;;;19.08;12.32;;;;;;;23.04;57.35;102520.44;5038263;28;20078;-59
2022/08/10 09:28:26;;;;;;;18.95;12.38;;;;;;;23.11;57.27;102524.03;5044672;28;20036;-60
2022/08/10 09:30:51;;;;;;;19.65;12.23;;;;;;;23.24;56.19;102512.47;5048003;28;20112;-60
2022/08/10 09:33:27;;;;;;;20.33;10.70;;;;;;;23.29;57.04;102510.69;5045469;28;20543;-60
2022/08/10 09:36:03;;;;;;;15.65;10.57;;;;;;;23.38;55.57;102509.78;5041393;28;20310;-60
2022/08/10 09:38:46;;;;;;;22.80;10.75;;;;;;;23.48;56.58;102510.59;5039799;28;20028;-60
2022/08/10 09:41:30;;;;;;;13.57;10.18;;;;;;;23.52;56.78;102507.03;5035105;28;20084;-60
2022/08/10 09:44:20;;;;;;;13.93;9.00;;;;;;;23.58;57.00;102505.25;5042805;28;20029;-60
2022/08/10 09:47:23;;;;;;;12.85;8.60;;;;;;;23.75;57.16;102501.63;5044977;28;20041;-60
2022/08/10 09:50:12;;;;;;;12.27;8.48;;;;;;;23.90;56.36;102500.69;5023249;28;20032;-59
2022/08/10 09:53:00;;;;;;;10.75;7.70;;;;;;;24.07;55.51;102500.56;5044811;28;20025;-59
2022/08/10 09:55:37;;;;;;;14.13;8.32;;;;;;;24.21;54.08;102492.50;5003402;28;20044;-60
2022/08/10 09:58:41;;;;;;;13.05;8.20;;;;;;;24.33;54.83;102491.53;5048533;28;20044;-60
2022/08/10 10:01:30;;;;;;;10.95;7.97;;;;;;;24.51;54.62;102487.84;5049007;28;20039;-60
2022/08/10 10:04:08;;;;;;;11.95;7.30;;;;;;;24.64;53.41;102487.75;5042089;28;20056;-60
2022/08/10 10:06:51;;;;;;;11.65;7.65;;;;;;;24.77;52.41;102482.31;5045833;28;20498;-60
2022/08/10 10:09:35;;;;;;;12.02;7.63;;;;;;;24.89;50.25;102474.16;5038451;28;20048;-60
2022/08/10 10:12:09;;;;;;;11.00;6.88;;;;;;;24.98;49.68;102476.75;5041908;28;20032;-60
2022/08/10 10:18:03;;;;;;;8.98;6.93;;;;;;;25.27;48.73;102470.19;5049301;28;20044;-60
2022/08/10 10:20:38;;;;;;;11.05;6.35;;;;;;;25.30;46.80;102459.50;5008154;28;20067;-60
2022/08/10 10:23:33;;;;;;;9.68;6.40;;;;;;;25.41;47.68;102459.38;5046378;28;20439;-61
2022/08/10 10:26:21;;;;;;;7.53;5.60;;;;;;;25.52;49.09;102459.25;5050662;28;20021;-60
2022/08/10 10:29:01;;;;;;;10.13;6.35;;;;;;;25.63;46.60;102454.63;5051666;28;20365;-60
2022/08/10 10:31:35;;;;;;;9.18;6.18;;;;;;;25.76;45.39;102454.47;5046737;28;20030;-60
2022/08/10 10:34:11;;;;;;;7.82;5.70;;;;;;;25.83;45.50;102457.03;5046930;28;20040;-60
2022/08/10 10:36:40;;;;;;;9.35;6.07;;;;;;;25.94;43.92;102447.97;5050292;28;20072;-60
2022/08/10 10:39:06;;;;;;;10.02;6.15;;;;;;;26.05;44.72;102453.19;5054894;28;20017;-60
2022/08/10 10:41:39;;;;;;;7.00;5.60;;;;;;;26.18;45.07;102447.59;5053238;28;20093;-60
2022/08/10 10:44:23;;;;;;;9.38;6.00;;;;;;;26.23;44.95;102443.97;5052315;28;20025;-59
2022/08/10 10:46:57;;;;;;;8.43;5.85;;;;;;;26.33;41.36;102445.59;5052168;28;20031;-58
2022/08/10 10:49:41;;;;;;;8.25;5.85;;;;;;;26.37;42.03;102436.63;5049937;28;20039;-59
2022/08/10 10:52:15;;;;;;;11.05;6.53;;;;;;;26.48;41.53;102437.31;5052760;28;20037;-59
2022/08/10 10:54:55;;;;;;;7.72;5.60;;;;;;;26.57;40.92;102432.72;5048933;28;20068;-59
2022/08/10 10:57:31;;;;;;;10.82;6.03;;;;;;;26.63;41.97;102436.16;5051828;28;20043;-59
2022/08/10 11:00:10;;;;;;;9.65;5.72;;;;;;;26.77;41.50;102427.03;5052794;28;20074;-59
2022/08/10 11:02:54;;;;;;;;;;;;;;;26.87;43.69;102428.63;5052415;28;20037;-59
2022/08/10 11:05:48;;;;;;;7.65;5.90;;;;;;;26.96;40.73;102420.41;5045070;28;19905;-59
2022/08/10 11:08:25;;;;;;;9.60;6.07;;;;;;;27.00;40.21;102415.88;5051531;28;20036;-60
2022/08/10 11:11:08;;;;;;;8.45;5.95;;;;;;;27.12;41.10;102420.09;5051153;28;20260;-60
2022/08/10 11:13:41;;;;;;;9.32;5.78;;;;;;;27.16;40.71;102411.97;5050350;28;20377;-59
2022/08/10 11:16:17;;;;;;;8.50;6.15;;;;;;;27.27;38.67;102413.53;5051426;28;20067;-59
2022/08/10 11:19:09;;;;;;;7.38;5.78;;;;;;;27.39;40.34;102410.63;5043316;28;20021;-59
2022/08/10 11:21:55;;;;;;;7.38;6.10;;;;;;;27.44;39.52;102406.03;5019623;28;20040;-61
2022/08/10 11:25:00;;;;;;;9.57;6.35;;;;;;;27.53;40.65;102396.91;5027877;28;20032;-61
2022/08/10 11:27:56;;;;;;;8.25;6.03;;;;;;;27.62;41.50;102393.13;5040665;28;20025;-61
2022/08/10 11:30:42;;;;;;;8.95;6.30;;;;;;;27.72;41.01;102403.63;5035713;28;20036;-62
2022/08/10 11:33:21;;;;;;;7.57;6.30;;;;;;;27.81;39.51;102399.84;5044614;28;20057;-62
2022/08/10 11:35:52;;;;;;;8.77;5.97;;;;;;;27.89;41.45;102394.28;5042906;28;20029;-60
2022/08/10 11:38:34;;;;;;;9.20;6.30;;;;;;;28.01;39.15;102399.38;5044442;28;20025;-60
2022/08/10 11:41:03;;;;;;;9.60;6.22;;;;;;;28.14;38.17;102402.59;5039391;28;20052;-60
2022/08/10 11:43:36;;;;;;;9.25;6.72;;;;;;;28.22;38.30;102399.75;5052962;28;20036;-60